sensor_id;sensor_type;location;lat;lon;timestamp;P1;durP1;ratioP1;P2;durP2;ratioP2
6751;SDS011;3413;47.680;9.166;2022-07-01T00:03:33;1.80;;;1.30;;
6751;SDS011;3413;47.680;9.166;2022-07-01T00:08:35;2.47;;;1.27;;
6751;SDS011;3413;47.680;9.166;2022-07-01T00:13:38;2.07;;;1.37;;
6751;SDS011;3413;47.680;9.166;2022-07-01T00:18:40;11.40;;;1.23;;
6751;SDS011;3413;47.680;9.166;2022-07-01T00:23:42;1.70;;;1.27;;
6751;SDS011;3413;47.680;9.166;2022-07-01T00:28:45;4.30;;;1.33;;
6751;SDS011;3413;47.680;9.166;2022-07-01T00:33:47;2.17;;;1.40;;
6751;SDS011;3413;47.680;9.166;2022-07-01T00:38:49;2.30;;;1.40;;
6751;SDS011;3413;47.680;9.166;2022-07-01T00:43:52;3.80;;;1.30;;
6751;SDS011;3413;47.680;9.166;2022-07-01T00:48:58;3.30;;;1.30;;
6751;SDS011;3413;47.680;9.166;2022-07-01T00:54:01;2.50;;;1.00;;
6751;SDS011;3413;47.680;9.166;2022-07-01T00:59:04;2.10;;;1.40;;
6751;SDS011;3413;47.680;9.166;2022-07-01T01:04:06;1.90;;;1.27;;
6751;SDS011;3413;47.680;9.166;2022-07-01T01:09:10;3.50;;;1.23;;
6751;SDS011;3413;47.680;9.166;2022-07-01T01:14:12;2.07;;;1.40;;
6751;SDS011;3413;47.680;9.166;2022-07-01T01:19:15;2.37;;;1.23;;
6751;SDS011;3413;47.680;9.166;2022-07-01T01:24:17;3.73;;;1.50;;
6751;SDS011;3413;47.680;9.166;2022-07-01T01:29:20;3.13;;;1.50;;
6751;SDS011;3413;47.680;9.166;2022-07-01T01:34:22;3.00;;;1.53;;
6751;SDS011;3413;47.680;9.166;2022-07-01T01:39:24;2.80;;;1.40;;
6751;SDS011;3413;47.680;9.166;2022-07-01T01:44:27;2.43;;;1.50;;
6751;SDS011;3413;47.680;9.166;2022-07-01T01:49:29;3.60;;;1.63;;
6751;SDS011;3413;47.680;9.166;2022-07-01T01:54:31;1.97;;;1.30;;
6751;SDS011;3413;47.680;9.166;2022-07-01T01:59:34;1.80;;;1.20;;
6751;SDS011;3413;47.680;9.166;2022-07-01T02:04:36;2.20;;;1.27;;
6751;SDS011;3413;47.680;9.166;2022-07-01T02:09:39;2.00;;;1.30;;
6751;SDS011;3413;47.680;9.166;2022-07-01T02:14:41;2.07;;;1.30;;
6751;SDS011;3413;47.680;9.166;2022-07-01T02:19:43;4.30;;;1.47;;
6751;SDS011;3413;47.680;9.166;2022-07-01T02:24:46;6.00;;;1.43;;
6751;SDS011;3413;47.680;9.166;2022-07-01T02:29:48;2.17;;;1.10;;
6751;SDS011;3413;47.680;9.166;2022-07-01T02:34:50;3.60;;;1.30;;
6751;SDS011;3413;47.680;9.166;2022-07-01T02:39:52;5.90;;;1.60;;
6751;SDS011;3413;47.680;9.166;2022-07-01T02:44:55;3.03;;;1.70;;
6751;SDS011;3413;47.680;9.166;2022-07-01T02:49:57;2.57;;;1.63;;
6751;SDS011;3413;47.680;9.166;2022-07-01T02:55:00;2.50;;;1.73;;
6751;SDS011;3413;47.680;9.166;2022-07-01T03:00:03;3.20;;;1.57;;
6751;SDS011;3413;47.680;9.166;2022-07-01T03:05:07;2.50;;;1.50;;
6751;SDS011;3413;47.680;9.166;2022-07-01T03:10:10;3.10;;;1.77;;
6751;SDS011;3413;47.680;9.166;2022-07-01T03:15:13;4.17;;;1.83;;
6751;SDS011;3413;47.680;9.166;2022-07-01T03:20:16;2.90;;;1.80;;
6751;SDS011;3413;47.680;9.166;2022-07-01T03:25:19;2.67;;;1.83;;
6751;SDS011;3413;47.680;9.166;2022-07-01T03:30:21;2.23;;;1.60;;
6751;SDS011;3413;47.680;9.166;2022-07-01T03:35:23;2.77;;;1.87;;
6751;SDS011;3413;47.680;9.166;2022-07-01T03:40:37;3.40;;;2.00;;
6751;SDS011;3413;47.680;9.166;2022-07-01T03:45:40;2.87;;;1.73;;
6751;SDS011;3413;47.680;9.166;2022-07-01T03:50:42;1.70;;;1.17;;
6751;SDS011;3413;47.680;9.166;2022-07-01T03:55:44;2.63;;;1.63;;
6751;SDS011;3413;47.680;9.166;2022-07-01T04:00:46;2.03;;;1.10;;
6751;SDS011;3413;47.680;9.166;2022-07-01T04:05:48;1.47;;;1.07;;
6751;SDS011;3413;47.680;9.166;2022-07-01T04:10:51;2.33;;;1.10;;
6751;SDS011;3413;47.680;9.166;2022-07-01T04:15:55;1.63;;;1.10;;
6751;SDS011;3413;47.680;9.166;2022-07-01T04:20:57;3.37;;;1.30;;
6751;SDS011;3413;47.680;9.166;2022-07-01T04:26:18;2.17;;;1.20;;
6751;SDS011;3413;47.680;9.166;2022-07-01T04:31:38;1.70;;;1.03;;
6751;SDS011;3413;47.680;9.166;2022-07-01T04:36:41;3.30;;;1.13;;
6751;SDS011;3413;47.680;9.166;2022-07-01T04:41:43;1.87;;;1.23;;
6751;SDS011;3413;47.680;9.166;2022-07-01T04:47:02;2.00;;;1.20;;
6751;SDS011;3413;47.680;9.166;2022-07-01T04:52:04;1.50;;;1.00;;
6751;SDS011;3413;47.680;9.166;2022-07-01T04:57:06;2.67;;;1.10;;
6751;SDS011;3413;47.680;9.166;2022-07-01T05:02:09;2.30;;;1.27;;
6751;SDS011;3413;47.680;9.166;2022-07-01T05:07:13;1.93;;;0.90;;
6751;SDS011;3413;47.680;9.166;2022-07-01T05:12:30;1.90;;;1.30;;
6751;SDS011;3413;47.680;9.166;2022-07-01T05:17:33;1.30;;;0.80;;
6751;SDS011;3413;47.680;9.166;2022-07-01T05:22:54;1.90;;;1.30;;
6751;SDS011;3413;47.680;9.166;2022-07-01T05:27:56;2.07;;;1.20;;
6751;SDS011;3413;47.680;9.166;2022-07-01T05:32:59;1.87;;;1.10;;
6751;SDS011;3413;47.680;9.166;2022-07-01T05:38:01;2.43;;;1.30;;
6751;SDS011;3413;47.680;9.166;2022-07-01T05:43:03;2.80;;;1.60;;
6751;SDS011;3413;47.680;9.166;2022-07-01T05:48:06;1.93;;;1.20;;
6751;SDS011;3413;47.680;9.166;2022-07-01T05:53:08;1.60;;;1.00;;
6751;SDS011;3413;47.680;9.166;2022-07-01T05:58:10;1.90;;;1.00;;
6751;SDS011;3413;47.680;9.166;2022-07-01T06:03:13;3.53;;;1.03;;
6751;SDS011;3413;47.680;9.166;2022-07-01T06:08:16;1.70;;;1.10;;
6751;SDS011;3413;47.680;9.166;2022-07-01T06:13:18;2.47;;;1.00;;
6751;SDS011;3413;47.680;9.166;2022-07-01T06:18:21;3.13;;;1.50;;
6751;SDS011;3413;47.680;9.166;2022-07-01T06:23:23;2.53;;;1.30;;
6751;SDS011;3413;47.680;9.166;2022-07-01T06:28:25;2.37;;;1.30;;
6751;SDS011;3413;47.680;9.166;2022-07-01T06:33:31;2.63;;;1.40;;
6751;SDS011;3413;47.680;9.166;2022-07-01T06:38:33;5.63;;;1.37;;
6751;SDS011;3413;47.680;9.166;2022-07-01T06:43:36;5.40;;;1.27;;
6751;SDS011;3413;47.680;9.166;2022-07-01T06:48:38;3.10;;;1.70;;
6751;SDS011;3413;47.680;9.166;2022-07-01T06:53:40;3.50;;;1.20;;
6751;SDS011;3413;47.680;9.166;2022-07-01T06:58:43;2.17;;;1.10;;
6751;SDS011;3413;47.680;9.166;2022-07-01T07:03:45;4.17;;;1.40;;
6751;SDS011;3413;47.680;9.166;2022-07-01T07:08:48;4.20;;;1.37;;
6751;SDS011;3413;47.680;9.166;2022-07-01T07:13:50;2.73;;;1.60;;
6751;SDS011;3413;47.680;9.166;2022-07-01T07:18:52;1.93;;;1.20;;
6751;SDS011;3413;47.680;9.166;2022-07-01T07:23:54;3.37;;;1.50;;
6751;SDS011;3413;47.680;9.166;2022-07-01T07:28:58;6.30;;;1.37;;
6751;SDS011;3413;47.680;9.166;2022-07-01T07:34:00;3.23;;;1.10;;
6751;SDS011;3413;47.680;9.166;2022-07-01T07:39:02;3.10;;;1.43;;
6751;SDS011;3413;47.680;9.166;2022-07-01T07:44:06;3.53;;;1.77;;
6751;SDS011;3413;47.680;9.166;2022-07-01T07:49:08;5.87;;;1.80;;
6751;SDS011;3413;47.680;9.166;2022-07-01T07:54:10;2.53;;;1.43;;
6751;SDS011;3413;47.680;9.166;2022-07-01T07:59:13;2.40;;;1.50;;
6751;SDS011;3413;47.680;9.166;2022-07-01T08:04:15;3.00;;;1.60;;
6751;SDS011;3413;47.680;9.166;2022-07-01T08:09:17;3.83;;;1.70;;
6751;SDS011;3413;47.680;9.166;2022-07-01T08:14:20;2.47;;;1.50;;
6751;SDS011;3413;47.680;9.166;2022-07-01T08:19:24;3.30;;;1.53;;
6751;SDS011;3413;47.680;9.166;2022-07-01T08:24:26;4.53;;;1.50;;
6751;SDS011;3413;47.680;9.166;2022-07-01T08:29:29;2.23;;;1.50;;
6751;SDS011;3413;47.680;9.166;2022-07-01T08:34:31;3.60;;;1.97;;
6751;SDS011;3413;47.680;9.166;2022-07-01T08:39:34;3.23;;;1.70;;
6751;SDS011;3413;47.680;9.166;2022-07-01T08:44:36;2.13;;;1.47;;
6751;SDS011;3413;47.680;9.166;2022-07-01T08:49:39;4.40;;;2.57;;
6751;SDS011;3413;47.680;9.166;2022-07-01T08:54:41;4.90;;;2.63;;
6751;SDS011;3413;47.680;9.166;2022-07-01T08:59:44;5.40;;;2.00;;
6751;SDS011;3413;47.680;9.166;2022-07-01T09:04:46;3.60;;;1.57;;
6751;SDS011;3413;47.680;9.166;2022-07-01T09:10:12;4.30;;;1.73;;
6751;SDS011;3413;47.680;9.166;2022-07-01T09:15:20;7.23;;;4.27;;
6751;SDS011;3413;47.680;9.166;2022-07-01T09:20:31;3.10;;;1.70;;
6751;SDS011;3413;47.680;9.166;2022-07-01T09:25:51;2.43;;;1.50;;
6751;SDS011;3413;47.680;9.166;2022-07-01T09:30:57;2.63;;;1.70;;
6751;SDS011;3413;47.680;9.166;2022-07-01T09:35:59;3.17;;;1.60;;
6751;SDS011;3413;47.680;9.166;2022-07-01T09:41:03;3.00;;;1.70;;
6751;SDS011;3413;47.680;9.166;2022-07-01T09:46:09;3.37;;;1.80;;
6751;SDS011;3413;47.680;9.166;2022-07-01T09:51:12;2.60;;;1.77;;
6751;SDS011;3413;47.680;9.166;2022-07-01T09:56:16;2.70;;;1.90;;
6751;SDS011;3413;47.680;9.166;2022-07-01T10:01:18;3.70;;;2.03;;
6751;SDS011;3413;47.680;9.166;2022-07-01T10:16:47;3.50;;;2.07;;
6751;SDS011;3413;47.680;9.166;2022-07-01T10:21:55;6.60;;;3.23;;
6751;SDS011;3413;47.680;9.166;2022-07-01T10:26:59;4.40;;;2.37;;
6751;SDS011;3413;47.680;9.166;2022-07-01T10:32:07;4.03;;;2.23;;
6751;SDS011;3413;47.680;9.166;2022-07-01T10:37:10;3.50;;;2.03;;
6751;SDS011;3413;47.680;9.166;2022-07-01T10:42:13;4.53;;;1.90;;
6751;SDS011;3413;47.680;9.166;2022-07-01T10:47:17;4.53;;;1.80;;
6751;SDS011;3413;47.680;9.166;2022-07-01T10:52:20;2.63;;;1.70;;
6751;SDS011;3413;47.680;9.166;2022-07-01T10:57:25;3.27;;;1.67;;
6751;SDS011;3413;47.680;9.166;2022-07-01T11:02:35;2.30;;;1.33;;
6751;SDS011;3413;47.680;9.166;2022-07-01T11:07:42;2.27;;;1.47;;
6751;SDS011;3413;47.680;9.166;2022-07-01T11:12:46;2.13;;;1.40;;
6751;SDS011;3413;47.680;9.166;2022-07-01T11:17:51;2.33;;;1.40;;
6751;SDS011;3413;47.680;9.166;2022-07-01T11:22:53;6.37;;;3.00;;
6751;SDS011;3413;47.680;9.166;2022-07-01T11:27:55;2.50;;;1.47;;
6751;SDS011;3413;47.680;9.166;2022-07-01T11:32:58;1.60;;;1.10;;
6751;SDS011;3413;47.680;9.166;2022-07-01T11:38:19;2.73;;;1.33;;
6751;SDS011;3413;47.680;9.166;2022-07-01T11:43:41;2.07;;;1.17;;
6751;SDS011;3413;47.680;9.166;2022-07-01T11:48:44;1.87;;;1.10;;
6751;SDS011;3413;47.680;9.166;2022-07-01T11:53:53;2.10;;;1.17;;
6751;SDS011;3413;47.680;9.166;2022-07-01T11:58:56;1.77;;;1.17;;
6751;SDS011;3413;47.680;9.166;2022-07-01T12:03:59;2.60;;;1.30;;
6751;SDS011;3413;47.680;9.166;2022-07-01T12:09:03;1.80;;;1.20;;
6751;SDS011;3413;47.680;9.166;2022-07-01T12:14:06;1.80;;;1.30;;
6751;SDS011;3413;47.680;9.166;2022-07-01T12:19:10;2.80;;;1.30;;
6751;SDS011;3413;47.680;9.166;2022-07-01T12:24:13;2.43;;;1.30;;
6751;SDS011;3413;47.680;9.166;2022-07-01T12:29:17;1.80;;;1.20;;
6751;SDS011;3413;47.680;9.166;2022-07-01T12:34:19;2.30;;;1.33;;
6751;SDS011;3413;47.680;9.166;2022-07-01T12:39:21;2.20;;;1.23;;
6751;SDS011;3413;47.680;9.166;2022-07-01T12:44:24;2.23;;;1.20;;
6751;SDS011;3413;47.680;9.166;2022-07-01T12:49:27;2.80;;;1.50;;
6751;SDS011;3413;47.680;9.166;2022-07-01T12:59:32;2.43;;;1.50;;
6751;SDS011;3413;47.680;9.166;2022-07-01T13:04:34;1.90;;;1.20;;
6751;SDS011;3413;47.680;9.166;2022-07-01T13:09:37;1.80;;;1.30;;
6751;SDS011;3413;47.680;9.166;2022-07-01T13:14:39;2.70;;;1.60;;
6751;SDS011;3413;47.680;9.166;2022-07-01T13:19:42;2.33;;;1.13;;
6751;SDS011;3413;47.680;9.166;2022-07-01T13:24:44;1.97;;;1.17;;
6751;SDS011;3413;47.680;9.166;2022-07-01T13:29:46;1.73;;;1.10;;
6751;SDS011;3413;47.680;9.166;2022-07-01T13:34:49;1.90;;;1.10;;
6751;SDS011;3413;47.680;9.166;2022-07-01T13:39:51;2.43;;;1.40;;
6751;SDS011;3413;47.680;9.166;2022-07-01T13:44:53;1.87;;;1.40;;
6751;SDS011;3413;47.680;9.166;2022-07-01T13:49:56;2.20;;;1.40;;
6751;SDS011;3413;47.680;9.166;2022-07-01T13:54:58;2.20;;;1.43;;
6751;SDS011;3413;47.680;9.166;2022-07-01T14:00:01;5.83;;;1.60;;
6751;SDS011;3413;47.680;9.166;2022-07-01T14:05:09;2.83;;;1.57;;
6751;SDS011;3413;47.680;9.166;2022-07-01T14:10:11;3.27;;;1.50;;
6751;SDS011;3413;47.680;9.166;2022-07-01T14:15:13;2.70;;;1.40;;
6751;SDS011;3413;47.680;9.166;2022-07-01T14:20:16;2.27;;;1.30;;
6751;SDS011;3413;47.680;9.166;2022-07-01T14:25:18;2.93;;;1.40;;
6751;SDS011;3413;47.680;9.166;2022-07-01T14:30:20;1.50;;;1.03;;
6751;SDS011;3413;47.680;9.166;2022-07-01T14:35:23;2.27;;;1.03;;
6751;SDS011;3413;47.680;9.166;2022-07-01T14:40:25;1.77;;;1.00;;
6751;SDS011;3413;47.680;9.166;2022-07-01T14:45:27;4.10;;;1.03;;
6751;SDS011;3413;47.680;9.166;2022-07-01T14:50:30;1.93;;;1.10;;
6751;SDS011;3413;47.680;9.166;2022-07-01T14:55:32;3.07;;;1.30;;
6751;SDS011;3413;47.680;9.166;2022-07-01T15:00:34;4.10;;;1.33;;
6751;SDS011;3413;47.680;9.166;2022-07-01T15:05:38;5.67;;;2.00;;
6751;SDS011;3413;47.680;9.166;2022-07-01T15:10:40;3.20;;;1.60;;
6751;SDS011;3413;47.680;9.166;2022-07-01T15:15:43;3.07;;;1.60;;
6751;SDS011;3413;47.680;9.166;2022-07-01T15:20:45;2.87;;;2.00;;
6751;SDS011;3413;47.680;9.166;2022-07-01T15:25:48;3.93;;;1.67;;
6751;SDS011;3413;47.680;9.166;2022-07-01T15:30:50;2.73;;;1.70;;
6751;SDS011;3413;47.680;9.166;2022-07-01T15:35:52;2.90;;;2.20;;
6751;SDS011;3413;47.680;9.166;2022-07-01T15:40:55;3.37;;;1.90;;
6751;SDS011;3413;47.680;9.166;2022-07-01T15:45:57;7.10;;;1.90;;
6751;SDS011;3413;47.680;9.166;2022-07-01T15:50:59;3.57;;;1.70;;
6751;SDS011;3413;47.680;9.166;2022-07-01T15:56:02;2.50;;;1.37;;
6751;SDS011;3413;47.680;9.166;2022-07-01T16:01:04;2.60;;;1.20;;
6751;SDS011;3413;47.680;9.166;2022-07-01T16:06:07;2.33;;;1.47;;
6751;SDS011;3413;47.680;9.166;2022-07-01T16:11:12;2.30;;;1.47;;
6751;SDS011;3413;47.680;9.166;2022-07-01T16:16:16;2.90;;;1.23;;
6751;SDS011;3413;47.680;9.166;2022-07-01T16:21:23;2.53;;;1.53;;
6751;SDS011;3413;47.680;9.166;2022-07-01T16:26:25;2.87;;;1.40;;
6751;SDS011;3413;47.680;9.166;2022-07-01T16:31:27;3.07;;;1.40;;
6751;SDS011;3413;47.680;9.166;2022-07-01T16:36:31;3.27;;;1.20;;
6751;SDS011;3413;47.680;9.166;2022-07-01T16:46:40;2.33;;;1.20;;
6751;SDS011;3413;47.680;9.166;2022-07-01T16:51:43;4.60;;;1.10;;
6751;SDS011;3413;47.680;9.166;2022-07-01T16:56:57;1.90;;;1.00;;
6751;SDS011;3413;47.680;9.166;2022-07-01T17:02:02;1.90;;;1.20;;
6751;SDS011;3413;47.680;9.166;2022-07-01T17:07:07;1.83;;;1.10;;
6751;SDS011;3413;47.680;9.166;2022-07-01T17:12:13;2.40;;;1.33;;
6751;SDS011;3413;47.680;9.166;2022-07-01T17:17:17;1.80;;;1.10;;
6751;SDS011;3413;47.680;9.166;2022-07-01T17:32:54;2.00;;;1.07;;
6751;SDS011;3413;47.680;9.166;2022-07-01T17:37:57;3.10;;;1.30;;
6751;SDS011;3413;47.680;9.166;2022-07-01T17:43:04;1.90;;;1.30;;
6751;SDS011;3413;47.680;9.166;2022-07-01T17:48:12;2.10;;;1.20;;
6751;SDS011;3413;47.680;9.166;2022-07-01T17:53:16;2.00;;;1.30;;
6751;SDS011;3413;47.680;9.166;2022-07-01T17:58:19;2.27;;;1.03;;
6751;SDS011;3413;47.680;9.166;2022-07-01T18:03:23;2.10;;;1.13;;
6751;SDS011;3413;47.680;9.166;2022-07-01T18:08:27;1.70;;;1.10;;
6751;SDS011;3413;47.680;9.166;2022-07-01T18:13:42;3.63;;;1.20;;
6751;SDS011;3413;47.680;9.166;2022-07-01T18:18:48;1.60;;;0.97;;
6751;SDS011;3413;47.680;9.166;2022-07-01T18:23:59;3.83;;;1.43;;
6751;SDS011;3413;47.680;9.166;2022-07-01T18:29:02;1.60;;;1.00;;
6751;SDS011;3413;47.680;9.166;2022-07-01T18:34:14;3.07;;;1.40;;
6751;SDS011;3413;47.680;9.166;2022-07-01T18:39:20;3.43;;;1.17;;
6751;SDS011;3413;47.680;9.166;2022-07-01T18:44:23;2.30;;;1.10;;
6751;SDS011;3413;47.680;9.166;2022-07-01T18:49:25;1.70;;;1.20;;
6751;SDS011;3413;47.680;9.166;2022-07-01T18:54:27;3.00;;;1.33;;
6751;SDS011;3413;47.680;9.166;2022-07-01T18:59:30;1.97;;;1.30;;
6751;SDS011;3413;47.680;9.166;2022-07-01T19:04:32;2.67;;;1.00;;
6751;SDS011;3413;47.680;9.166;2022-07-01T19:09:34;3.60;;;1.30;;
6751;SDS011;3413;47.680;9.166;2022-07-01T19:14:37;3.77;;;1.37;;
6751;SDS011;3413;47.680;9.166;2022-07-01T19:19:40;3.43;;;1.00;;
6751;SDS011;3413;47.680;9.166;2022-07-01T19:24:42;1.87;;;1.17;;
6751;SDS011;3413;47.680;9.166;2022-07-01T19:29:48;2.23;;;1.13;;
6751;SDS011;3413;47.680;9.166;2022-07-01T19:34:50;1.97;;;1.23;;
6751;SDS011;3413;47.680;9.166;2022-07-01T19:39:52;2.80;;;1.20;;
6751;SDS011;3413;47.680;9.166;2022-07-01T19:44:55;2.07;;;1.17;;
6751;SDS011;3413;47.680;9.166;2022-07-01T19:49:57;2.30;;;1.30;;
6751;SDS011;3413;47.680;9.166;2022-07-01T19:54:59;4.83;;;1.20;;
6751;SDS011;3413;47.680;9.166;2022-07-01T20:00:02;1.60;;;1.00;;
6751;SDS011;3413;47.680;9.166;2022-07-01T20:05:05;2.70;;;1.20;;
6751;SDS011;3413;47.680;9.166;2022-07-01T20:10:08;1.40;;;1.00;;
6751;SDS011;3413;47.680;9.166;2022-07-01T20:15:10;2.27;;;1.33;;
6751;SDS011;3413;47.680;9.166;2022-07-01T20:20:13;1.90;;;1.10;;
6751;SDS011;3413;47.680;9.166;2022-07-01T20:25:15;2.13;;;1.13;;
6751;SDS011;3413;47.680;9.166;2022-07-01T20:30:17;2.23;;;1.30;;
6751;SDS011;3413;47.680;9.166;2022-07-01T20:35:19;2.17;;;1.30;;
6751;SDS011;3413;47.680;9.166;2022-07-01T20:40:22;1.83;;;1.20;;
6751;SDS011;3413;47.680;9.166;2022-07-01T20:45:24;1.80;;;1.20;;
6751;SDS011;3413;47.680;9.166;2022-07-01T20:50:27;3.00;;;1.20;;
6751;SDS011;3413;47.680;9.166;2022-07-01T20:55:29;2.67;;;1.30;;
6751;SDS011;3413;47.680;9.166;2022-07-01T21:00:31;2.90;;;1.17;;
6751;SDS011;3413;47.680;9.166;2022-07-01T21:05:34;3.70;;;1.30;;
6751;SDS011;3413;47.680;9.166;2022-07-01T21:10:36;6.00;;;1.43;;
6751;SDS011;3413;47.680;9.166;2022-07-01T21:15:38;2.57;;;1.50;;
6751;SDS011;3413;47.680;9.166;2022-07-01T21:20:42;1.70;;;1.10;;
6751;SDS011;3413;47.680;9.166;2022-07-01T21:25:44;2.60;;;1.40;;
6751;SDS011;3413;47.680;9.166;2022-07-01T21:30:47;2.37;;;1.40;;
6751;SDS011;3413;47.680;9.166;2022-07-01T21:35:49;3.53;;;1.80;;
6751;SDS011;3413;47.680;9.166;2022-07-01T21:40:53;2.47;;;1.63;;
6751;SDS011;3413;47.680;9.166;2022-07-01T21:45:56;4.20;;;1.73;;
6751;SDS011;3413;47.680;9.166;2022-07-01T21:51:03;2.30;;;1.40;;
6751;SDS011;3413;47.680;9.166;2022-07-01T21:56:07;2.20;;;1.27;;
6751;SDS011;3413;47.680;9.166;2022-07-01T22:01:10;4.40;;;1.83;;
6751;SDS011;3413;47.680;9.166;2022-07-01T22:06:13;6.20;;;3.07;;
6751;SDS011;3413;47.680;9.166;2022-07-01T22:11:19;9.03;;;4.23;;
6751;SDS011;3413;47.680;9.166;2022-07-01T22:16:23;8.73;;;4.00;;
6751;SDS011;3413;47.680;9.166;2022-07-01T22:21:30;4.63;;;1.70;;
6751;SDS011;3413;47.680;9.166;2022-07-01T22:26:33;1.93;;;1.33;;
6751;SDS011;3413;47.680;9.166;2022-07-01T22:31:37;3.60;;;1.33;;
6751;SDS011;3413;47.680;9.166;2022-07-01T22:36:42;2.63;;;1.50;;
6751;SDS011;3413;47.680;9.166;2022-07-01T22:41:45;2.63;;;1.50;;
6751;SDS011;3413;47.680;9.166;2022-07-01T22:47:06;2.47;;;1.70;;
6751;SDS011;3413;47.680;9.166;2022-07-01T22:52:16;1.80;;;1.30;;
6751;SDS011;3413;47.680;9.166;2022-07-01T22:57:21;2.13;;;1.53;;
6751;SDS011;3413;47.680;9.166;2022-07-01T23:02:38;2.10;;;1.40;;
6751;SDS011;3413;47.680;9.166;2022-07-01T23:07:48;2.70;;;1.50;;
6751;SDS011;3413;47.680;9.166;2022-07-01T23:17:53;2.40;;;1.47;;
6751;SDS011;3413;47.680;9.166;2022-07-01T23:22:55;3.30;;;1.87;;
6751;SDS011;3413;47.680;9.166;2022-07-01T23:27:58;2.90;;;1.80;;
6751;SDS011;3413;47.680;9.166;2022-07-01T23:33:03;4.07;;;2.00;;
6751;SDS011;3413;47.680;9.166;2022-07-01T23:38:08;4.20;;;1.70;;
6751;SDS011;3413;47.680;9.166;2022-07-01T23:43:14;2.27;;;1.57;;
6751;SDS011;3413;47.680;9.166;2022-07-01T23:48:17;3.60;;;1.50;;
6751;SDS011;3413;47.680;9.166;2022-07-01T23:53:19;4.03;;;1.40;;
6751;SDS011;3413;47.680;9.166;2022-07-01T23:58:21;2.40;;;1.50;;
